Hoogeveen Airport

EHHO · Drenthe, 荷兰

罗盘
风向 的 风向 的 风向 到 风向 280° Hoogeveen Airport 9/27
风: 8 kt, 3 beaufort

8 kt

1 kt
改变
0 1.000 2.000 3.000 4.000 5.000
FEW 1.700 ft
SCT 2.100 ft
BKN 2.500 ft
METAR EHGG 070255Z AUTO 28008KT 250V320 9999 -SHRA FEW017 SCT021 BKN025 04/03 Q1015

METAR Hoogeveen Airport - EHHO

Hoogeveen Airport是,荷兰中的小机场。 该机场有一条跑道: 9/27. 该领域的国际民航组织标志是EHHO.

这份报告是针对2022年12月7日 03:55, 当地时间在Groningen Airport Eelde进行的。

机场观察

风向为280°,速度为8 kt。 风向在250°和320°之间变化。

可见度为10 km 或者更多。

有几云在1.700 ft的高度, 疏云,零星散落的云朵在2.100 ft的高度 和 碎云在2.500 ft的高度。 破损或更高的上限为2.500 ft。

当前天气为光 阵雨 雨。 温度为4 °C,阵风为-1 °C。 露点为3 °C,相对湿度为93%。 海平面上的气压为1015 hPa (QNH)。

白天

今天,太阳从08:31升起,在16:19降落。 这适用于Hoogeveen Airport,世界夏令时可能有所不同。 当地时间与世界标准时间之间的时差为+1 小时。 当前,没有夏令时有效。

公司介绍

在这个机场,你可以找到跳伞中心, 飞行俱乐部 和 飞行学校。 这个机场上的公司有Vliegles.nl, MVVH, Airbet, Egmond Vintage Wings 和 Vliegclub Hoogeveen。

体会

你可以在这个机场与经验丰富的教练进行双人跳伞。 这些跳伞包括自由落体。 在Hoogeveen Airport进行跳伞的费用是€ 199。 在这里预订Skydive Hoogeveen

跑道

Id 标题 侧风 逆风 侧风 %
9/27 092°-272° 1 kt 8 kt 14 %

逆风成分最大的方向会被突出显示,并用于横风计算。 这并不一定意味着这个方向在使用。

乌云

1.700 ft FEW 几云
2.100 ft SCT 疏云,零星散落的云朵
2.500 ft BKN 碎云

温度 & 天气

天气 光 阵雨 雨
温度 4 °C
露点 3 °C
相对湿度 93%
风寒 -1 °C
Kp-index 1 (0-9)

白天

日出
08:32 (4:02)
中午
12:25
日落
16:17

小工具

你想在你的网站上有一个关于Hoogeveen Airport的当前航空天气(METAR)的小部件吗?

显示HTML代码

我们和第三方通过cookies跟踪您在我们网站上的互联网行为。如果你继续,我们认为你同意我们的饼干政策